Lexington, KY (40524)

1:48 AM EST on December 27, 2014 (GMT -0500)
Open Gates | Change Station
CLOSE
Current Station
Personal Weather Station
Location: Lexington, KY
Elevation: 1014 ft
Nearby Weather Stations

Elev 1014 ft 38.01 °N, 84.54 °W | Updated 11 seconds ago

Mostly Cloudy
Mostly Cloudy
46.4 °F
Feels Like 46 °F
N
0.0
Wind Variable Wind from SSW
Gusts 3.0 mph

Today
High -- | Low -- °F
--% Chance of Precip.
Yesterday
High -- | Low -- °F
Precip. -- in
7:52 AM 5:25 PM
Waxing Crescent, 33% visible
Pressure 30.21 in
Visibility 10.0 miles
Clouds Clear
Windchill 46 °F
Dew Point 37 °F
Humidity 70%
Rainfall 0.00 in
Snow Depth Not available.
UV 0.0 out of 12
Pollen .10 out of 12
Air Quality Not available.
Flu Activity Not available.
METAR KLEX 270554Z 19007KT 10SM CLR 07/01 A3021 RMK AO2 SLP230 T00720011 10083 20067 53005

More Conditions Fewer Conditions

Pressure 30.21 in
Visibility 10.0 miles
Clouds Clear
Windchill 46 °F
Dew Point 37 °F
Humidity 70%
Rainfall 0.00 in
Snow Depth Not available.
UV 0.0 out of 12
Pollen .10 out of 12
Air Quality Not available.
Flu Activity Not available.
METAR KLEX 270554Z 19007KT 10SM CLR 07/01 A3021 RMK AO2 SLP230 T00720011 10083 20067 53005

More Conditions Fewer Conditions

10-Day Weather Forecast

Almanac

Astronomy

Dec. 27, 2014 Rise Set
Actual Time
Civil Twilight
Nautical Twilight
Astronomical Twilight
Moon
Length of Visible Light
Length of Day
Tomorrow will be .
, % of the Moon is Illuminated

Today's Extremes

State Highs State Lows

Community

WunderPhotos

Upload Photos

1,780,863 photos uploaded!

WunderBlogs® & News

Nearby

Air Quality

  Air Quality AQ Index Pollutant
Not available.

Snow Depth

Station Depth Elevation

Earthquake Activity

City Distance Mag. Time & Date
Minimum magnitude displayed is 2.5.

Coastal Water Temperatures

Place Temperature

Nearby Weather Stations